sensor_id;sensor_type;location;lat;lon;timestamp;temperature;humidity
52889;DHT22;41413;52.770;6.892;2023-02-15T00:01:48;3.30;99.90
52889;DHT22;41413;52.770;6.892;2023-02-15T00:04:17;3.40;99.90
52889;DHT22;41413;52.770;6.892;2023-02-15T00:06:44;3.30;99.90
52889;DHT22;41413;52.770;6.892;2023-02-15T00:09:11;3.20;99.90
52889;DHT22;41413;52.770;6.892;2023-02-15T00:11:38;3.20;99.90
52889;DHT22;41413;52.770;6.892;2023-02-15T00:14:20;3.10;99.90
52889;DHT22;41413;52.770;6.892;2023-02-15T00:16:49;3.10;99.90
52889;DHT22;41413;52.770;6.892;2023-02-15T00:19:17;3.00;99.90
52889;DHT22;41413;52.770;6.892;2023-02-15T00:21:45;2.90;99.90
52889;DHT22;41413;52.770;6.892;2023-02-15T00:24:14;2.90;99.90
52889;DHT22;41413;52.770;6.892;2023-02-15T00:26:42;2.90;99.90
52889;DHT22;41413;52.770;6.892;2023-02-15T00:29:10;2.80;99.90
52889;DHT22;41413;52.770;6.892;2023-02-15T00:31:38;2.90;99.90
52889;DHT22;41413;52.770;6.892;2023-02-15T00:34:13;3.00;99.90
52889;DHT22;41413;52.770;6.892;2023-02-15T00:36:40;3.00;99.90
52889;DHT22;41413;52.770;6.892;2023-02-15T00:39:07;2.90;99.90
52889;DHT22;41413;52.770;6.892;2023-02-15T00:41:34;2.90;99.90
52889;DHT22;41413;52.770;6.892;2023-02-15T00:44:01;2.90;99.90
52889;DHT22;41413;52.770;6.892;2023-02-15T00:46:28;2.80;99.90
52889;DHT22;41413;52.770;6.892;2023-02-15T00:48:55;2.80;99.90
52889;DHT22;41413;52.770;6.892;2023-02-15T00:51:22;2.80;99.90
52889;DHT22;41413;52.770;6.892;2023-02-15T00:53:49;2.70;99.90
52889;DHT22;41413;52.770;6.892;2023-02-15T00:56:16;2.70;99.90
52889;DHT22;41413;52.770;6.892;2023-02-15T00:58:42;2.80;99.90
52889;DHT22;41413;52.770;6.892;2023-02-15T01:01:12;2.80;99.90
52889;DHT22;41413;52.770;6.892;2023-02-15T01:03:40;2.70;99.90
52889;DHT22;41413;52.770;6.892;2023-02-15T01:06:08;2.60;99.90
52889;DHT22;41413;52.770;6.892;2023-02-15T01:08:35;2.60;99.90
52889;DHT22;41413;52.770;6.892;2023-02-15T01:11:08;2.50;99.90
52889;DHT22;41413;52.770;6.892;2023-02-15T01:13:35;2.50;99.90
52889;DHT22;41413;52.770;6.892;2023-02-15T01:16:03;2.50;99.90
52889;DHT22;41413;52.770;6.892;2023-02-15T01:18:31;2.50;99.90
52889;DHT22;41413;52.770;6.892;2023-02-15T01:20:58;2.40;99.90
52889;DHT22;41413;52.770;6.892;2023-02-15T01:23:25;2.50;99.90
52889;DHT22;41413;52.770;6.892;2023-02-15T01:25:52;2.50;99.90
52889;DHT22;41413;52.770;6.892;2023-02-15T01:28:18;2.50;99.90
52889;DHT22;41413;52.770;6.892;2023-02-15T01:30:45;2.50;99.90
52889;DHT22;41413;52.770;6.892;2023-02-15T01:33:12;2.40;99.90
52889;DHT22;41413;52.770;6.892;2023-02-15T01:35:45;2.40;99.90
52889;DHT22;41413;52.770;6.892;2023-02-15T01:38:13;2.30;99.90
52889;DHT22;41413;52.770;6.892;2023-02-15T01:40:40;2.30;99.90
52889;DHT22;41413;52.770;6.892;2023-02-15T01:43:11;2.30;99.90
52889;DHT22;41413;52.770;6.892;2023-02-15T01:45:39;2.20;99.90
52889;DHT22;41413;52.770;6.892;2023-02-15T01:50:42;2.30;99.90
52889;DHT22;41413;52.770;6.892;2023-02-15T01:55:45;2.40;99.90
52889;DHT22;41413;52.770;6.892;2023-02-15T01:58:13;2.50;99.90
52889;DHT22;41413;52.770;6.892;2023-02-15T02:00:40;2.40;99.90
52889;DHT22;41413;52.770;6.892;2023-02-15T02:03:07;2.40;99.90
52889;DHT22;41413;52.770;6.892;2023-02-15T02:05:34;2.30;99.90
52889;DHT22;41413;52.770;6.892;2023-02-15T02:08:02;2.30;99.90
52889;DHT22;41413;52.770;6.892;2023-02-15T02:10:28;2.20;99.90
52889;DHT22;41413;52.770;6.892;2023-02-15T02:12:58;2.30;99.90
52889;DHT22;41413;52.770;6.892;2023-02-15T02:18:18;2.20;99.90
52889;DHT22;41413;52.770;6.892;2023-02-15T02:26:58;2.10;99.90
52889;DHT22;41413;52.770;6.892;2023-02-15T02:38:03;2.10;99.90
52889;DHT22;41413;52.770;6.892;2023-02-15T02:40:50;2.10;99.90
52889;DHT22;41413;52.770;6.892;2023-02-15T02:43:46;2.00;99.90
52889;DHT22;41413;52.770;6.892;2023-02-15T02:46:21;2.00;99.90
52889;DHT22;41413;52.770;6.892;2023-02-15T02:48:49;2.00;99.90
52889;DHT22;41413;52.770;6.892;2023-02-15T02:51:15;2.00;99.90
52889;DHT22;41413;52.770;6.892;2023-02-15T02:53:53;2.00;99.90
52889;DHT22;41413;52.770;6.892;2023-02-15T02:56:30;2.00;99.90
52889;DHT22;41413;52.770;6.892;2023-02-15T02:58:59;1.90;99.90
52889;DHT22;41413;52.770;6.892;2023-02-15T03:01:39;1.90;99.90
52889;DHT22;41413;52.770;6.892;2023-02-15T03:04:11;1.90;99.90
52889;DHT22;41413;52.770;6.892;2023-02-15T03:06:56;2.00;99.90
52889;DHT22;41413;52.770;6.892;2023-02-15T03:09:36;1.90;99.90
52889;DHT22;41413;52.770;6.892;2023-02-15T03:12:11;1.90;99.90
52889;DHT22;41413;52.770;6.892;2023-02-15T03:14:41;1.70;99.90
52889;DHT22;41413;52.770;6.892;2023-02-15T03:17:09;1.70;99.90
52889;DHT22;41413;52.770;6.892;2023-02-15T03:19:39;1.70;99.90
52889;DHT22;41413;52.770;6.892;2023-02-15T03:22:21;1.70;99.90
52889;DHT22;41413;52.770;6.892;2023-02-15T03:27:45;1.90;99.90
52889;DHT22;41413;52.770;6.892;2023-02-15T03:30:15;1.70;99.90
52889;DHT22;41413;52.770;6.892;2023-02-15T03:32:45;1.60;99.90
52889;DHT22;41413;52.770;6.892;2023-02-15T03:35:13;1.60;99.90
52889;DHT22;41413;52.770;6.892;2023-02-15T03:37:53;1.60;99.90
52889;DHT22;41413;52.770;6.892;2023-02-15T03:40:34;1.70;99.90
52889;DHT22;41413;52.770;6.892;2023-02-15T03:49:49;1.50;99.90
52889;DHT22;41413;52.770;6.892;2023-02-15T03:52:14;1.50;99.90
52889;DHT22;41413;52.770;6.892;2023-02-15T03:54:42;1.40;99.90
52889;DHT22;41413;52.770;6.892;2023-02-15T03:57:20;1.50;99.90
52889;DHT22;41413;52.770;6.892;2023-02-15T04:00:17;1.50;99.90
52889;DHT22;41413;52.770;6.892;2023-02-15T04:05:42;1.40;99.90
52889;DHT22;41413;52.770;6.892;2023-02-15T04:08:10;1.40;99.90
52889;DHT22;41413;52.770;6.892;2023-02-15T04:10:37;1.40;99.90
52889;DHT22;41413;52.770;6.892;2023-02-15T04:13:29;1.40;99.90
52889;DHT22;41413;52.770;6.892;2023-02-15T04:15:55;1.50;99.90
52889;DHT22;41413;52.770;6.892;2023-02-15T04:18:38;1.50;99.90
52889;DHT22;41413;52.770;6.892;2023-02-15T04:21:25;1.40;99.90
52889;DHT22;41413;52.770;6.892;2023-02-15T04:24:11;1.40;99.90
52889;DHT22;41413;52.770;6.892;2023-02-15T04:26:57;1.30;99.90
52889;DHT22;41413;52.770;6.892;2023-02-15T04:29:25;1.30;99.90
52889;DHT22;41413;52.770;6.892;2023-02-15T04:31:53;1.30;99.90
52889;DHT22;41413;52.770;6.892;2023-02-15T04:34:20;1.40;99.90
52889;DHT22;41413;52.770;6.892;2023-02-15T04:36:47;1.40;99.90
52889;DHT22;41413;52.770;6.892;2023-02-15T04:39:15;1.40;99.90
52889;DHT22;41413;52.770;6.892;2023-02-15T04:41:42;1.40;99.90
52889;DHT22;41413;52.770;6.892;2023-02-15T04:44:09;1.40;99.90
52889;DHT22;41413;52.770;6.892;2023-02-15T04:46:36;1.40;99.90
52889;DHT22;41413;52.770;6.892;2023-02-15T04:49:03;1.40;99.90
52889;DHT22;41413;52.770;6.892;2023-02-15T04:51:30;1.40;99.90
52889;DHT22;41413;52.770;6.892;2023-02-15T04:53:57;1.40;99.90
52889;DHT22;41413;52.770;6.892;2023-02-15T04:56:23;1.40;99.90
52889;DHT22;41413;52.770;6.892;2023-02-15T04:58:50;1.40;99.90
52889;DHT22;41413;52.770;6.892;2023-02-15T05:01:17;1.40;99.90
52889;DHT22;41413;52.770;6.892;2023-02-15T05:03:44;1.40;99.90
52889;DHT22;41413;52.770;6.892;2023-02-15T05:06:10;1.50;99.90
52889;DHT22;41413;52.770;6.892;2023-02-15T05:08:37;1.50;99.90
52889;DHT22;41413;52.770;6.892;2023-02-15T05:11:04;1.60;99.90
52889;DHT22;41413;52.770;6.892;2023-02-15T05:13:30;1.60;99.90
52889;DHT22;41413;52.770;6.892;2023-02-15T05:15:57;1.60;99.90
52889;DHT22;41413;52.770;6.892;2023-02-15T05:18:24;1.60;99.90
52889;DHT22;41413;52.770;6.892;2023-02-15T05:20:50;1.60;99.90
52889;DHT22;41413;52.770;6.892;2023-02-15T05:23:17;1.50;99.90
52889;DHT22;41413;52.770;6.892;2023-02-15T05:25:50;1.50;99.90
52889;DHT22;41413;52.770;6.892;2023-02-15T05:28:37;1.50;99.90
52889;DHT22;41413;52.770;6.892;2023-02-15T05:31:21;1.50;99.90
52889;DHT22;41413;52.770;6.892;2023-02-15T05:33:48;1.50;99.90
52889;DHT22;41413;52.770;6.892;2023-02-15T05:36:15;1.50;99.90
52889;DHT22;41413;52.770;6.892;2023-02-15T05:38:42;1.50;99.90
52889;DHT22;41413;52.770;6.892;2023-02-15T05:41:10;1.50;99.90
52889;DHT22;41413;52.770;6.892;2023-02-15T05:43:38;1.50;99.90
52889;DHT22;41413;52.770;6.892;2023-02-15T05:46:05;1.40;99.90
52889;DHT22;41413;52.770;6.892;2023-02-15T05:48:33;1.50;99.90
52889;DHT22;41413;52.770;6.892;2023-02-15T05:51:06;1.50;99.90
52889;DHT22;41413;52.770;6.892;2023-02-15T05:53:36;1.40;99.90
52889;DHT22;41413;52.770;6.892;2023-02-15T05:56:04;1.40;99.90
52889;DHT22;41413;52.770;6.892;2023-02-15T05:58:36;1.40;99.90
52889;DHT22;41413;52.770;6.892;2023-02-15T06:01:14;1.30;99.90
52889;DHT22;41413;52.770;6.892;2023-02-15T06:03:41;1.20;99.90
52889;DHT22;41413;52.770;6.892;2023-02-15T06:06:09;1.20;99.90
52889;DHT22;41413;52.770;6.892;2023-02-15T06:08:37;1.30;99.90
52889;DHT22;41413;52.770;6.892;2023-02-15T06:11:04;1.20;99.90
52889;DHT22;41413;52.770;6.892;2023-02-15T06:13:32;1.20;99.90
52889;DHT22;41413;52.770;6.892;2023-02-15T06:16:02;1.20;99.90
52889;DHT22;41413;52.770;6.892;2023-02-15T06:18:29;1.20;99.90
52889;DHT22;41413;52.770;6.892;2023-02-15T06:20:55;1.20;99.90
52889;DHT22;41413;52.770;6.892;2023-02-15T06:23:22;1.20;99.90
52889;DHT22;41413;52.770;6.892;2023-02-15T06:25:49;1.30;99.90
52889;DHT22;41413;52.770;6.892;2023-02-15T06:28:15;1.30;99.90
52889;DHT22;41413;52.770;6.892;2023-02-15T06:30:42;1.30;99.90
52889;DHT22;41413;52.770;6.892;2023-02-15T06:33:09;1.30;99.90
52889;DHT22;41413;52.770;6.892;2023-02-15T06:35:35;1.30;99.90
52889;DHT22;41413;52.770;6.892;2023-02-15T06:38:02;1.30;99.90
52889;DHT22;41413;52.770;6.892;2023-02-15T06:40:29;1.20;99.90
52889;DHT22;41413;52.770;6.892;2023-02-15T06:42:56;1.30;99.90
52889;DHT22;41413;52.770;6.892;2023-02-15T06:45:22;1.20;99.90
52889;DHT22;41413;52.770;6.892;2023-02-15T06:47:49;1.20;99.90
52889;DHT22;41413;52.770;6.892;2023-02-15T06:50:16;1.20;99.90
52889;DHT22;41413;52.770;6.892;2023-02-15T06:52:43;1.20;99.90
52889;DHT22;41413;52.770;6.892;2023-02-15T06:55:09;1.20;99.90
52889;DHT22;41413;52.770;6.892;2023-02-15T06:57:36;1.20;99.90
52889;DHT22;41413;52.770;6.892;2023-02-15T07:00:03;1.30;99.90
52889;DHT22;41413;52.770;6.892;2023-02-15T07:02:31;1.30;99.90
52889;DHT22;41413;52.770;6.892;2023-02-15T07:04:58;1.30;99.90
52889;DHT22;41413;52.770;6.892;2023-02-15T07:07:25;1.20;99.90
52889;DHT22;41413;52.770;6.892;2023-02-15T07:09:51;1.30;99.90
52889;DHT22;41413;52.770;6.892;2023-02-15T07:12:18;1.30;99.90
52889;DHT22;41413;52.770;6.892;2023-02-15T07:15:03;1.30;99.90
52889;DHT22;41413;52.770;6.892;2023-02-15T07:17:32;1.30;99.90
52889;DHT22;41413;52.770;6.892;2023-02-15T07:22:36;1.40;99.90
52889;DHT22;41413;52.770;6.892;2023-02-15T07:25:05;1.40;99.90
52889;DHT22;41413;52.770;6.892;2023-02-15T07:27:31;1.40;99.90
52889;DHT22;41413;52.770;6.892;2023-02-15T07:29:59;1.50;99.90
52889;DHT22;41413;52.770;6.892;2023-02-15T07:32:30;1.60;99.90
52889;DHT22;41413;52.770;6.892;2023-02-15T07:34:59;1.80;99.90
52889;DHT22;41413;52.770;6.892;2023-02-15T07:37:26;1.90;99.90
52889;DHT22;41413;52.770;6.892;2023-02-15T07:39:53;2.00;99.90
52889;DHT22;41413;52.770;6.892;2023-02-15T07:42:20;2.00;99.90
52889;DHT22;41413;52.770;6.892;2023-02-15T07:44:48;1.90;99.90
52889;DHT22;41413;52.770;6.892;2023-02-15T07:47:15;2.00;99.90
52889;DHT22;41413;52.770;6.892;2023-02-15T07:49:41;2.10;99.90
52889;DHT22;41413;52.770;6.892;2023-02-15T07:52:08;2.10;99.90
52889;DHT22;41413;52.770;6.892;2023-02-15T07:54:35;2.20;99.90
52889;DHT22;41413;52.770;6.892;2023-02-15T07:57:02;2.40;99.90
52889;DHT22;41413;52.770;6.892;2023-02-15T07:59:28;2.60;99.90
52889;DHT22;41413;52.770;6.892;2023-02-15T08:01:55;2.90;99.90
52889;DHT22;41413;52.770;6.892;2023-02-15T08:04:23;3.20;99.90
52889;DHT22;41413;52.770;6.892;2023-02-15T08:06:52;3.60;99.90
52889;DHT22;41413;52.770;6.892;2023-02-15T08:09:20;3.70;99.90
52889;DHT22;41413;52.770;6.892;2023-02-15T08:11:47;4.00;99.90
52889;DHT22;41413;52.770;6.892;2023-02-15T08:14:14;4.30;99.90
52889;DHT22;41413;52.770;6.892;2023-02-15T08:16:50;4.90;99.90
52889;DHT22;41413;52.770;6.892;2023-02-15T08:19:25;5.20;99.90
52889;DHT22;41413;52.770;6.892;2023-02-15T08:21:54;5.50;99.90
52889;DHT22;41413;52.770;6.892;2023-02-15T08:24:27;5.90;99.90
52889;DHT22;41413;52.770;6.892;2023-02-15T08:26:55;6.60;99.90
52889;DHT22;41413;52.770;6.892;2023-02-15T08:29:26;6.80;99.90
52889;DHT22;41413;52.770;6.892;2023-02-15T08:31:55;7.00;99.90
52889;DHT22;41413;52.770;6.892;2023-02-15T08:34:25;7.30;99.90
52889;DHT22;41413;52.770;6.892;2023-02-15T08:36:51;7.20;99.90
52889;DHT22;41413;52.770;6.892;2023-02-15T08:39:18;7.30;99.90
52889;DHT22;41413;52.770;6.892;2023-02-15T08:41:46;7.50;99.90
52889;DHT22;41413;52.770;6.892;2023-02-15T08:44:18;7.70;99.90
52889;DHT22;41413;52.770;6.892;2023-02-15T08:46:46;7.60;99.90
52889;DHT22;41413;52.770;6.892;2023-02-15T08:49:17;8.00;99.90
52889;DHT22;41413;52.770;6.892;2023-02-15T08:51:44;8.30;99.90
52889;DHT22;41413;52.770;6.892;2023-02-15T08:54:20;8.60;99.90
52889;DHT22;41413;52.770;6.892;2023-02-15T08:56:48;8.70;99.90
52889;DHT22;41413;52.770;6.892;2023-02-15T08:59:20;9.00;99.90
52889;DHT22;41413;52.770;6.892;2023-02-15T09:01:49;9.00;99.90
52889;DHT22;41413;52.770;6.892;2023-02-15T09:04:16;9.10;99.90
52889;DHT22;41413;52.770;6.892;2023-02-15T09:06:45;8.90;99.90
52889;DHT22;41413;52.770;6.892;2023-02-15T09:09:15;8.70;99.90
52889;DHT22;41413;52.770;6.892;2023-02-15T09:11:43;8.90;99.90
52889;DHT22;41413;52.770;6.892;2023-02-15T09:14:13;9.00;99.90
52889;DHT22;41413;52.770;6.892;2023-02-15T09:16:41;9.10;99.90
52889;DHT22;41413;52.770;6.892;2023-02-15T09:19:08;9.50;99.90
52889;DHT22;41413;52.770;6.892;2023-02-15T09:21:37;9.20;99.90
52889;DHT22;41413;52.770;6.892;2023-02-15T09:24:10;9.40;99.90
52889;DHT22;41413;52.770;6.892;2023-02-15T09:26:43;8.90;99.90
52889;DHT22;41413;52.770;6.892;2023-02-15T09:29:11;9.20;99.90
52889;DHT22;41413;52.770;6.892;2023-02-15T09:31:44;9.40;99.90
52889;DHT22;41413;52.770;6.892;2023-02-15T09:34:13;9.60;99.90
52889;DHT22;41413;52.770;6.892;2023-02-15T09:36:40;9.30;99.90
52889;DHT22;41413;52.770;6.892;2023-02-15T09:39:08;9.40;99.90
52889;DHT22;41413;52.770;6.892;2023-02-15T09:41:46;9.20;99.90
52889;DHT22;41413;52.770;6.892;2023-02-15T09:44:32;9.20;99.90
52889;DHT22;41413;52.770;6.892;2023-02-15T09:53:12;9.60;99.90
52889;DHT22;41413;52.770;6.892;2023-02-15T10:12:32;9.60;99.90
52889;DHT22;41413;52.770;6.892;2023-02-15T10:20:35;9.50;99.90
52889;DHT22;41413;52.770;6.892;2023-02-15T10:28:48;9.70;99.90
52889;DHT22;41413;52.770;6.892;2023-02-15T10:31:26;9.70;99.90
52889;DHT22;41413;52.770;6.892;2023-02-15T10:34:24;9.60;99.90
52889;DHT22;41413;52.770;6.892;2023-02-15T10:39:43;9.30;99.90
52889;DHT22;41413;52.770;6.892;2023-02-15T10:42:34;9.30;99.90
52889;DHT22;41413;52.770;6.892;2023-02-15T10:45:25;9.40;99.90
52889;DHT22;41413;52.770;6.892;2023-02-15T10:50:46;9.70;99.90
52889;DHT22;41413;52.770;6.892;2023-02-15T11:01:22;10.20;99.90
52889;DHT22;41413;52.770;6.892;2023-02-15T11:06:49;10.50;99.90
52889;DHT22;41413;52.770;6.892;2023-02-15T11:09:18;10.90;99.90
52889;DHT22;41413;52.770;6.892;2023-02-15T11:11:50;11.20;99.90
52889;DHT22;41413;52.770;6.892;2023-02-15T11:14:27;11.30;99.90
52889;DHT22;41413;52.770;6.892;2023-02-15T11:17:04;11.50;99.90
52889;DHT22;41413;52.770;6.892;2023-02-15T11:19:35;11.90;99.90
52889;DHT22;41413;52.770;6.892;2023-02-15T11:22:04;11.60;99.90
52889;DHT22;41413;52.770;6.892;2023-02-15T11:24:42;11.40;99.90
52889;DHT22;41413;52.770;6.892;2023-02-15T11:29:45;11.80;99.90
52889;DHT22;41413;52.770;6.892;2023-02-15T11:32:22;11.90;99.90
52889;DHT22;41413;52.770;6.892;2023-02-15T11:38:06;11.80;99.90
52889;DHT22;41413;52.770;6.892;2023-02-15T11:40:49;11.80;99.90
52889;DHT22;41413;52.770;6.892;2023-02-15T11:43:29;11.90;99.90
52889;DHT22;41413;52.770;6.892;2023-02-15T11:45:59;11.60;99.90
52889;DHT22;41413;52.770;6.892;2023-02-15T11:48:26;11.60;99.90
52889;DHT22;41413;52.770;6.892;2023-02-15T11:50:56;11.40;99.90
52889;DHT22;41413;52.770;6.892;2023-02-15T11:53:23;11.30;99.90
52889;DHT22;41413;52.770;6.892;2023-02-15T11:55:55;11.30;99.90
52889;DHT22;41413;52.770;6.892;2023-02-15T11:58:40;11.30;99.90
52889;DHT22;41413;52.770;6.892;2023-02-15T12:01:14;11.40;99.90
52889;DHT22;41413;52.770;6.892;2023-02-15T12:03:49;11.40;99.90
52889;DHT22;41413;52.770;6.892;2023-02-15T12:06:32;11.20;99.90
52889;DHT22;41413;52.770;6.892;2023-02-15T12:09:17;11.30;99.90
52889;DHT22;41413;52.770;6.892;2023-02-15T12:11:49;11.20;99.90
52889;DHT22;41413;52.770;6.892;2023-02-15T12:14:16;11.40;99.90
52889;DHT22;41413;52.770;6.892;2023-02-15T12:16:49;11.30;99.90
52889;DHT22;41413;52.770;6.892;2023-02-15T12:19:29;11.30;99.90
52889;DHT22;41413;52.770;6.892;2023-02-15T12:21:59;11.30;99.90
52889;DHT22;41413;52.770;6.892;2023-02-15T12:24:33;11.30;99.90
52889;DHT22;41413;52.770;6.892;2023-02-15T12:27:14;11.30;99.90
52889;DHT22;41413;52.770;6.892;2023-02-15T12:29:44;11.20;99.90
52889;DHT22;41413;52.770;6.892;2023-02-15T12:32:25;11.40;99.90
52889;DHT22;41413;52.770;6.892;2023-02-15T12:35:00;11.50;99.90
52889;DHT22;41413;52.770;6.892;2023-02-15T12:37:30;11.30;99.90
52889;DHT22;41413;52.770;6.892;2023-02-15T12:39:59;11.50;99.90
52889;DHT22;41413;52.770;6.892;2023-02-15T12:42:28;11.50;99.90
52889;DHT22;41413;52.770;6.892;2023-02-15T12:45:27;11.50;99.90
52889;DHT22;41413;52.770;6.892;2023-02-15T12:50:40;11.60;99.90
52889;DHT22;41413;52.770;6.892;2023-02-15T12:53:18;11.60;99.90
52889;DHT22;41413;52.770;6.892;2023-02-15T12:58:21;11.70;99.90
52889;DHT22;41413;52.770;6.892;2023-02-15T13:01:14;11.70;99.90
52889;DHT22;41413;52.770;6.892;2023-02-15T13:04:01;11.60;99.90
52889;DHT22;41413;52.770;6.892;2023-02-15T13:06:35;11.60;99.90
52889;DHT22;41413;52.770;6.892;2023-02-15T13:09:15;11.60;99.90
52889;DHT22;41413;52.770;6.892;2023-02-15T13:11:45;11.60;99.90
52889;DHT22;41413;52.770;6.892;2023-02-15T13:14:19;11.80;99.90
52889;DHT22;41413;52.770;6.892;2023-02-15T13:16:50;11.80;99.90
52889;DHT22;41413;52.770;6.892;2023-02-15T13:22:02;11.80;99.90
52889;DHT22;41413;52.770;6.892;2023-02-15T13:24:50;11.90;99.90
52889;DHT22;41413;52.770;6.892;2023-02-15T13:27:23;11.80;99.90
52889;DHT22;41413;52.770;6.892;2023-02-15T13:29:58;11.70;99.90
52889;DHT22;41413;52.770;6.892;2023-02-15T13:32:37;11.80;99.90
52889;DHT22;41413;52.770;6.892;2023-02-15T13:35:05;11.70;99.90
52889;DHT22;41413;52.770;6.892;2023-02-15T13:40:40;11.80;99.90
52889;DHT22;41413;52.770;6.892;2023-02-15T13:48:57;11.70;99.90
52889;DHT22;41413;52.770;6.892;2023-02-15T13:51:33;11.80;99.90
52889;DHT22;41413;52.770;6.892;2023-02-15T13:59:46;11.80;99.90
52889;DHT22;41413;52.770;6.892;2023-02-15T14:06:36;11.60;99.90
52889;DHT22;41413;52.770;6.892;2023-02-15T14:11:32;11.70;99.90
52889;DHT22;41413;52.770;6.892;2023-02-15T14:17:07;11.90;99.90
52889;DHT22;41413;52.770;6.892;2023-02-15T14:19:49;11.80;99.90
52889;DHT22;41413;52.770;6.892;2023-02-15T14:28:19;11.70;99.90
52889;DHT22;41413;52.770;6.892;2023-02-15T14:30:38;11.60;99.90
52889;DHT22;41413;52.770;6.892;2023-02-15T14:35:48;11.60;99.90
52889;DHT22;41413;52.770;6.892;2023-02-15T14:41:31;11.60;99.90
52889;DHT22;41413;52.770;6.892;2023-02-15T14:44:13;11.50;99.90
52889;DHT22;41413;52.770;6.892;2023-02-15T14:46:47;11.50;99.90
52889;DHT22;41413;52.770;6.892;2023-02-15T14:49:27;11.50;99.90
52889;DHT22;41413;52.770;6.892;2023-02-15T14:52:00;11.50;99.90
52889;DHT22;41413;52.770;6.892;2023-02-15T14:59:43;11.50;99.90
52889;DHT22;41413;52.770;6.892;2023-02-15T15:02:21;11.60;99.90
52889;DHT22;41413;52.770;6.892;2023-02-15T15:04:59;11.50;99.90
52889;DHT22;41413;52.770;6.892;2023-02-15T15:07:35;11.50;99.90
52889;DHT22;41413;52.770;6.892;2023-02-15T15:12:51;11.40;99.90
52889;DHT22;41413;52.770;6.892;2023-02-15T15:18:08;11.30;99.90
52889;DHT22;41413;52.770;6.892;2023-02-15T15:20:49;11.30;99.90
52889;DHT22;41413;52.770;6.892;2023-02-15T15:42:48;11.10;99.90
52889;DHT22;41413;52.770;6.892;2023-02-15T15:45:37;11.10;99.90
52889;DHT22;41413;52.770;6.892;2023-02-15T15:51:34;11.00;99.90
52889;DHT22;41413;52.770;6.892;2023-02-15T15:54:05;10.90;99.90
52889;DHT22;41413;52.770;6.892;2023-02-15T15:56:34;10.90;99.90
52889;DHT22;41413;52.770;6.892;2023-02-15T15:59:06;10.80;99.90
52889;DHT22;41413;52.770;6.892;2023-02-15T16:01:43;10.80;99.90
52889;DHT22;41413;52.770;6.892;2023-02-15T16:04:12;10.70;99.90
52889;DHT22;41413;52.770;6.892;2023-02-15T16:06:40;10.80;99.90
52889;DHT22;41413;52.770;6.892;2023-02-15T16:09:22;10.70;99.90
52889;DHT22;41413;52.770;6.892;2023-02-15T16:11:59;10.60;99.90
52889;DHT22;41413;52.770;6.892;2023-02-15T16:14:36;10.60;99.90
52889;DHT22;41413;52.770;6.892;2023-02-15T16:17:07;10.60;99.90
52889;DHT22;41413;52.770;6.892;2023-02-15T16:19:40;10.50;99.90
52889;DHT22;41413;52.770;6.892;2023-02-15T16:22:23;10.50;99.90
52889;DHT22;41413;52.770;6.892;2023-02-15T16:25:03;10.40;99.90
52889;DHT22;41413;52.770;6.892;2023-02-15T16:27:39;10.40;99.90
52889;DHT22;41413;52.770;6.892;2023-02-15T16:32:47;10.20;99.90
52889;DHT22;41413;52.770;6.892;2023-02-15T16:35:18;10.10;99.90
52889;DHT22;41413;52.770;6.892;2023-02-15T16:37:45;10.10;99.90
52889;DHT22;41413;52.770;6.892;2023-02-15T16:40:27;10.10;99.90
52889;DHT22;41413;52.770;6.892;2023-02-15T16:42:59;10.10;99.90
52889;DHT22;41413;52.770;6.892;2023-02-15T16:45:29;10.00;99.90
52889;DHT22;41413;52.770;6.892;2023-02-15T16:47:57;9.90;99.90
52889;DHT22;41413;52.770;6.892;2023-02-15T16:50:30;9.90;99.90
52889;DHT22;41413;52.770;6.892;2023-02-15T16:52:58;9.90;99.90
52889;DHT22;41413;52.770;6.892;2023-02-15T16:55:28;10.00;99.90
52889;DHT22;41413;52.770;6.892;2023-02-15T16:58:01;9.80;99.90
52889;DHT22;41413;52.770;6.892;2023-02-15T17:00:32;9.80;99.90
52889;DHT22;41413;52.770;6.892;2023-02-15T17:03:04;9.80;99.90
52889;DHT22;41413;52.770;6.892;2023-02-15T17:05:47;9.70;99.90
52889;DHT22;41413;52.770;6.892;2023-02-15T17:11:32;9.60;99.90
52889;DHT22;41413;52.770;6.892;2023-02-15T17:13:32;9.60;99.90
52889;DHT22;41413;52.770;6.892;2023-02-15T17:18:29;9.50;99.90
52889;DHT22;41413;52.770;6.892;2023-02-15T17:20:59;9.40;99.90
52889;DHT22;41413;52.770;6.892;2023-02-15T17:23:31;9.30;99.90
52889;DHT22;41413;52.770;6.892;2023-02-15T17:26:02;9.30;99.90
52889;DHT22;41413;52.770;6.892;2023-02-15T17:28:36;9.20;99.90
52889;DHT22;41413;52.770;6.892;2023-02-15T17:31:06;9.20;99.90
52889;DHT22;41413;52.770;6.892;2023-02-15T17:38:58;9.10;99.90
52889;DHT22;41413;52.770;6.892;2023-02-15T17:41:35;9.00;99.90
52889;DHT22;41413;52.770;6.892;2023-02-15T17:44:04;9.00;99.90
52889;DHT22;41413;52.770;6.892;2023-02-15T17:46:36;9.00;99.90
52889;DHT22;41413;52.770;6.892;2023-02-15T17:49:03;8.90;99.90
52889;DHT22;41413;52.770;6.892;2023-02-15T17:51:31;8.90;99.90
52889;DHT22;41413;52.770;6.892;2023-02-15T17:53:58;8.90;99.90
52889;DHT22;41413;52.770;6.892;2023-02-15T17:56:43;8.90;99.90
52889;DHT22;41413;52.770;6.892;2023-02-15T17:59:10;8.80;99.90
52889;DHT22;41413;52.770;6.892;2023-02-15T18:01:49;8.80;99.90
52889;DHT22;41413;52.770;6.892;2023-02-15T18:04:35;8.90;99.90
52889;DHT22;41413;52.770;6.892;2023-02-15T18:07:21;8.80;99.90
52889;DHT22;41413;52.770;6.892;2023-02-15T18:10:14;8.80;99.90
52889;DHT22;41413;52.770;6.892;2023-02-15T18:13:00;8.70;99.90
52889;DHT22;41413;52.770;6.892;2023-02-15T18:15:27;8.70;99.90
52889;DHT22;41413;52.770;6.892;2023-02-15T18:17:54;8.70;99.90
52889;DHT22;41413;52.770;6.892;2023-02-15T18:20:27;8.60;99.90
52889;DHT22;41413;52.770;6.892;2023-02-15T18:22:54;8.60;99.90
52889;DHT22;41413;52.770;6.892;2023-02-15T18:25:22;8.60;99.90
52889;DHT22;41413;52.770;6.892;2023-02-15T18:27:51;8.60;99.90
52889;DHT22;41413;52.770;6.892;2023-02-15T18:30:22;8.60;99.90
52889;DHT22;41413;52.770;6.892;2023-02-15T18:32:51;8.50;99.90
52889;DHT22;41413;52.770;6.892;2023-02-15T18:35:21;8.50;99.90
52889;DHT22;41413;52.770;6.892;2023-02-15T18:37:49;8.50;99.90
52889;DHT22;41413;52.770;6.892;2023-02-15T18:40:25;8.50;99.90
52889;DHT22;41413;52.770;6.892;2023-02-15T18:42:53;8.50;99.90
52889;DHT22;41413;52.770;6.892;2023-02-15T18:45:24;8.40;99.90
52889;DHT22;41413;52.770;6.892;2023-02-15T18:47:54;8.40;99.90
52889;DHT22;41413;52.770;6.892;2023-02-15T18:50:21;8.40;99.90
52889;DHT22;41413;52.770;6.892;2023-02-15T18:52:50;8.30;99.90
52889;DHT22;41413;52.770;6.892;2023-02-15T18:55:18;8.30;99.90
52889;DHT22;41413;52.770;6.892;2023-02-15T18:57:47;8.30;99.90
52889;DHT22;41413;52.770;6.892;2023-02-15T19:00:16;8.30;99.90
52889;DHT22;41413;52.770;6.892;2023-02-15T19:02:43;8.30;99.90
52889;DHT22;41413;52.770;6.892;2023-02-15T19:05:11;8.30;99.90
52889;DHT22;41413;52.770;6.892;2023-02-15T19:07:38;8.20;99.90
52889;DHT22;41413;52.770;6.892;2023-02-15T19:10:07;8.20;99.90
52889;DHT22;41413;52.770;6.892;2023-02-15T19:12:38;8.20;99.90
52889;DHT22;41413;52.770;6.892;2023-02-15T19:15:05;8.20;99.90